Time;durP1;ratioP1;P1;durP2;ratioP2;P2;SDS_P1;SDS_P2;PMS_P1;PMS_P2;Temp;Humidity;BMP_temperature;BMP_pressure;BME280_temperature;BME280_humidity;BME280_pressure;Samples;Min_cycle;Max_cycle;Signal;HPM_P1;HPM_P2
2021/10/22 00:00:23;;;;;;;8.18;3.55;;;;;;;;;;5067461;28;20250;-89
2021/10/22 00:02:51;;;;;;;6.35;2.50;;;;;;;;;;5067826;28;20211;-87
2021/10/22 00:05:18;;;;;;;7.43;2.00;;;;;;;;;;5066015;28;20228;-87
2021/10/22 00:07:45;;;;;;;3.75;2.00;;;;;;;;;;5065788;28;20203;-87
2021/10/22 00:10:12;;;;;;;3.63;2.20;;;;;;;;;;5067799;28;20270;-87
2021/10/22 00:12:40;;;;;;;13.93;2.80;;;;;;;;;;5065928;28;20203;-87
2021/10/22 00:15:09;;;;;;;4.15;2.67;;;;;;;;;;5066106;28;20203;-87
2021/10/22 00:17:36;;;;;;;10.48;2.72;;;;;;;;;;5068516;28;20222;-87
2021/10/22 00:20:05;;;;;;;7.38;2.15;;;;;;;;;;5067929;28;20227;-87
2021/10/22 00:22:32;;;;;;;4.47;1.60;;;;;;;;;;5065849;28;20262;-87
2021/10/22 00:24:59;;;;;;;6.93;2.58;;;;;;;;;;5066060;28;20228;-87
2021/10/22 00:27:26;;;;;;;9.65;2.20;;;;;;;;;;5065264;28;20317;-87
2021/10/22 00:29:53;;;;;;;5.78;1.95;;;;;;;;;;5066372;28;20701;-87
2021/10/22 00:32:20;;;;;;;5.53;1.80;;;;;;;;;;5067380;28;20211;-87
2021/10/22 00:34:47;;;;;;;6.55;1.90;;;;;;;;;;5068381;28;20206;-87
2021/10/22 00:37:15;;;;;;;9.70;2.33;;;7.50;99.90;;;;;;5067206;28;20203;-87
2021/10/22 00:39:42;;;;;;;7.03;1.90;;;;;;;;;;5066273;28;20224;-87
2021/10/22 00:42:09;;;;;;;10.55;2.35;;;;;;;;;;5067667;28;20239;-87
2021/10/22 00:44:36;;;;;;;8.90;2.28;;;;;;;;;;5065593;28;20215;-87
2021/10/22 00:47:04;;;;;;;6.50;1.70;;;;;;;;;;5067871;28;20204;-88
2021/10/22 00:49:32;;;;;;;11.63;2.05;;;;;;;;;;5064442;28;20594;-88
2021/10/22 00:51:59;;;;;;;4.70;2.05;;;;;;;;;;5065260;28;20231;-88
2021/10/22 00:54:26;;;;;;;3.53;2.33;;;7.50;99.90;;;;;;5066049;28;20195;-87
2021/10/22 00:56:54;;;;;;;8.93;2.40;;;;;;;;;;5065409;28;20192;-87
2021/10/22 00:59:21;;;;;;;5.93;2.95;;;;;;;;;;5064163;28;20234;-87
2021/10/22 01:01:48;;;;;;;4.78;2.42;;;;;;;;;;5064720;28;20208;-88
2021/10/22 01:04:15;;;;;;;16.23;2.85;;;;;;;;;;5064633;28;20646;-88
2021/10/22 01:06:42;;;;;;;9.23;2.25;;;;;;;;;;5064536;28;20212;-88
2021/10/22 01:09:10;;;;;;;5.25;1.63;;;7.50;99.90;;;;;;5065205;28;20661;-87
2021/10/22 01:11:39;;;;;;;4.75;2.00;;;7.60;99.90;;;;;;5065079;28;20254;-88
2021/10/22 01:14:06;;;;;;;14.25;2.20;;;;;;;;;;5064675;28;20226;-88
2021/10/22 01:16:36;;;;;;;3.92;1.70;;;7.50;99.90;;;;;;5064023;28;20203;-88
2021/10/22 01:19:03;;;;;;;7.30;2.72;;;;;;;;;;5063853;28;20223;-88
2021/10/22 01:21:32;;;;;;;5.68;2.38;;;;;;;;;;5075788;28;20191;-88
2021/10/22 01:23:59;;;;;;;6.80;1.80;;;;;;;;;;5077990;28;20219;-88
2021/10/22 01:26:27;;;;;;;14.10;2.47;;;;;;;;;;5061167;28;20207;-87
2021/10/22 01:28:54;;;;;;;18.23;3.60;;;;;;;;;;5068846;28;20242;-88
2021/10/22 01:31:21;;;;;;;11.85;2.88;;;;;;;;;;5073204;28;20203;-86
2021/10/22 01:33:49;;;;;;;6.45;2.33;;;;;;;;;;5075033;28;20204;-88
2021/10/22 01:36:16;;;;;;;10.40;2.22;;;;;;;;;;5075264;28;20207;-88
2021/10/22 01:38:46;;;;;;;11.02;2.85;;;;;;;;;;5074754;28;20227;-88
2021/10/22 01:41:13;;;;;;;12.70;2.30;;;;;;;;;;5075139;28;20207;-89
2021/10/22 01:43:42;;;;;;;10.65;2.42;;;;;;;;;;5077823;28;20224;-89
2021/10/22 01:46:09;;;;;;;8.82;2.05;;;;;;;;;;5067913;28;20611;-87
2021/10/22 01:48:36;;;;;;;5.97;2.40;;;;;;;;;;5060907;28;20300;-88
2021/10/22 01:51:03;;;;;;;8.02;2.30;;;;;;;;;;5061803;28;20203;-87
2021/10/22 01:53:30;;;;;;;8.30;2.67;;;;;;;;;;5058900;28;20257;-88
2021/10/22 01:55:59;;;;;;;8.45;1.90;;;;;;;;;;5059511;28;20261;-88
2021/10/22 01:58:26;;;;;;;7.75;2.22;;;;;;;;;;5060991;28;20229;-88
2021/10/22 02:00:53;;;;;;;7.32;2.03;;;;;;;;;;5062656;28;20237;-87
2021/10/22 02:03:20;;;;;;;4.18;2.20;;;;;;;;;;5060635;28;20203;-88
2021/10/22 02:05:47;;;;;;;2.95;1.60;;;;;;;;;;5060642;28;20223;-88
2021/10/22 02:08:14;;;;;;;9.20;2.28;;;;;;;;;;5061851;28;20198;-87
2021/10/22 02:10:42;;;;;;;10.90;3.20;;;;;;;;;;5063591;28;20203;-87
2021/10/22 02:13:10;;;;;;;8.45;3.55;;;;;;;;;;5068528;28;20271;-87
2021/10/22 02:15:37;;;;;;;9.27;2.67;;;;;;;;;;5064499;28;20204;-88
2021/10/22 02:18:04;;;;;;;6.43;1.63;;;;;;;;;;5063721;28;20207;-87
2021/10/22 02:20:31;;;;;;;6.30;1.83;;;;;;;;;;5064317;28;20228;-87
2021/10/22 02:22:58;;;;;;;6.43;2.25;;;;;;;;;;5065250;28;20210;-87
2021/10/22 02:25:25;;;;;;;20.10;4.05;;;;;;;;;;5064457;28;20223;-87
2021/10/22 02:27:52;;;;;;;9.98;2.80;;;;;;;;;;5064409;28;20215;-87
2021/10/22 02:30:22;;;;;;;3.35;2.03;;;7.40;99.90;;;;;;5070404;28;20230;-87
2021/10/22 02:32:49;;;;;;;5.85;3.10;;;;;;;;;;5078054;28;20183;-89
2021/10/22 02:35:16;;;;;;;8.70;2.75;;;;;;;;;;5081367;28;20214;-88
2021/10/22 02:37:45;;;;;;;8.13;2.80;;;;;;;;;;5071103;28;20204;-88
2021/10/22 02:40:12;;;;;;;5.80;2.20;;;;;;;;;;5067835;28;20444;-88
2021/10/22 02:42:39;;;;;;;5.18;2.10;;;;;;;;;;5068968;28;20214;-88
2021/10/22 02:45:07;;;;;;;5.05;3.42;;;;;;;;;;5065478;28;20296;-88
2021/10/22 02:47:35;;;;;;;9.35;2.30;;;;;;;;;;5065330;28;20284;-88
2021/10/22 02:50:02;;;;;;;7.72;3.15;;;;;;;;;;5065038;28;20224;-87
2021/10/22 02:52:30;;;;;;;12.13;2.70;;;;;;;;;;5071004;28;20207;-87
2021/10/22 02:54:57;;;;;;;7.40;2.45;;;;;;;;;;5071162;28;20218;-88
2021/10/22 02:57:24;;;;;;;7.63;1.80;;;;;;;;;;5074676;28;20208;-88
2021/10/22 02:59:51;;;;;;;7.40;3.10;;;;;;;;;;5064677;28;20243;-87
2021/10/22 03:02:18;;;;;;;3.78;2.10;;;;;;;;;;5062411;28;20204;-88
2021/10/22 03:04:47;;;;;;;7.40;2.50;;;;;;;;;;5063619;28;20501;-87
2021/10/22 03:07:13;;;;;;;11.82;2.88;;;;;;;;;;5067221;28;20493;-87
2021/10/22 03:09:41;;;;;;;6.47;2.33;;;;;;;;;;5068112;28;20227;-87
2021/10/22 03:12:08;;;;;;;8.40;2.63;;;;;;;;;;5067632;28;20257;-88
2021/10/22 03:14:35;;;;;;;4.57;2.10;;;;;;;;;;5068948;28;20195;-87
2021/10/22 03:17:02;;;;;;;6.13;2.05;;;;;;;;;;5069977;28;20500;-87
2021/10/22 03:19:29;;;;;;;4.13;2.00;;;;;;;;;;5069186;28;20288;-87
2021/10/22 03:21:57;;;;;;;14.25;2.95;;;;;;;;;;5068042;28;20210;-88
2021/10/22 03:24:27;;;;;;;10.88;3.05;;;;;;;;;;5067025;28;20272;-86
2021/10/22 03:26:54;;;;;;;10.77;3.58;;;;;;;;;;5067492;28;20328;-87
2021/10/22 03:29:21;;;;;;;5.18;1.77;;;;;;;;;;5068458;28;20222;-87
2021/10/22 03:31:48;;;;;;;10.75;2.83;;;;;;;;;;5067077;28;20207;-86
2021/10/22 03:34:15;;;;;;;4.50;2.67;;;;;;;;;;5065903;28;20254;-86
2021/10/22 03:36:42;;;;;;;9.48;2.80;;;;;;;;;;5067253;28;20195;-86
2021/10/22 03:39:10;;;;;;;10.05;2.20;;;;;;;;;;5065776;28;20250;-86
2021/10/22 03:41:40;;;;;;;7.45;1.90;;;;;;;;;;5064922;28;20490;-87
2021/10/22 03:44:07;;;;;;;9.90;2.72;;;;;;;;;;5071139;28;20198;-86
2021/10/22 03:46:34;;;;;;;5.82;2.10;;;;;;;;;;5075791;28;20428;-86
2021/10/22 03:49:00;;;;;;;12.15;3.03;;;;;;;;;;5077887;28;20266;-88
2021/10/22 03:51:27;;;;;;;5.90;2.72;;;;;;;;;;5079682;28;20424;-89
2021/10/22 03:53:54;;;;;;;5.43;2.28;;;;;;;;;;5076173;28;20199;-86
2021/10/22 03:56:24;;;;;;;7.63;2.40;;;;;;;;;;5068764;28;20517;-86
2021/10/22 03:58:51;;;;;;;7.95;1.75;;;;;;;;;;5066912;28;20481;-87
2021/10/22 04:01:18;;;;;;;8.23;3.05;;;;;;;;;;5066241;28;20207;-86
2021/10/22 04:03:45;;;;;;;6.35;2.10;;;;;;;;;;5066549;28;20291;-86
2021/10/22 04:06:12;;;;;;;8.98;2.50;;;;;;;;;;5067616;28;20223;-88
2021/10/22 04:08:39;;;;;;;7.30;2.28;;;;;;;;;;5076231;28;20276;-86
2021/10/22 04:11:06;;;;;;;2.67;1.33;;;;;;;;;;5076484;28;20196;-87
2021/10/22 04:13:35;;;;;;;11.15;2.55;;;;;;;;;;5075803;28;20203;-87
2021/10/22 04:16:02;;;;;;;13.53;1.93;;;;;;;;;;5072505;28;20222;-88
2021/10/22 04:18:29;;;;;;;3.13;2.17;;;;;;;;;;5074460;28;20566;-87
2021/10/22 04:20:56;;;;;;;10.17;2.33;;;;;;;;;;5063792;28;20273;-87
2021/10/22 04:23:23;;;;;;;3.70;1.87;;;;;;;;;;5061434;28;20446;-87
2021/10/22 04:25:51;;;;;;;6.65;3.78;;;;;;;;;;5063939;28;20482;-87
2021/10/22 04:28:20;;;;;;;7.00;2.40;;;7.60;99.90;;;;;;5064141;28;20204;-87
2021/10/22 04:30:48;;;;;;;5.30;2.47;;;;;;;;;;5063991;28;20204;-87
2021/10/22 04:33:15;;;;;;;3.50;2.28;;;;;;;;;;5064216;28;20204;-87
2021/10/22 04:35:42;;;;;;;6.83;2.13;;;;;;;;;;5065661;28;20196;-87
2021/10/22 04:40:55;;;;;;;9.40;2.63;;;;;;;;;;5064686;28;20547;-87
2021/10/22 04:43:22;;;;;;;6.57;2.80;;;;;;;;;;5063678;28;20267;-87
2021/10/22 04:45:53;;;;;;;3.30;2.30;;;7.60;99.90;;;;;;5064014;28;20224;-87
2021/10/22 04:48:20;;;;;;;9.90;1.77;;;7.70;99.90;;;;;;5063368;28;20535;-87
2021/10/22 04:50:50;;;;;;;8.75;2.42;;;7.60;99.90;;;;;;5063697;28;20203;-87
2021/10/22 04:53:18;;;;;;;5.15;1.77;;;;;;;;;;5064351;28;20199;-88
2021/10/22 04:55:45;;;;;;;6.57;2.20;;;;;;;;;;5063420;28;20199;-88
2021/10/22 04:58:12;;;;;;;3.13;1.42;;;;;;;;;;5064953;28;20207;-88
2021/10/22 05:00:39;;;;;;;5.60;2.15;;;;;;;;;;5086127;22;20304;-83
2021/10/22 05:03:07;;;;;;;7.47;2.17;;;7.60;99.90;;;;;;5065725;28;20204;-80
2021/10/22 05:05:34;;;;;;;8.20;3.20;;;;;;;;;;5074425;28;20246;-81
2021/10/22 05:08:01;;;;;;;5.32;1.77;;;;;;;;;;5068639;28;20547;-81
2021/10/22 05:10:28;;;;;;;5.30;3.05;;;;;;;;;;5063383;28;20223;-82
2021/10/22 05:12:55;;;;;;;6.20;3.60;;;;;;;;;;5059624;28;20203;-80
2021/10/22 05:15:23;;;;;;;7.50;2.30;;;;;;;;;;5063889;28;20257;-79
2021/10/22 05:17:50;;;;;;;5.05;1.63;;;;;;;;;;5063110;28;20214;-83
2021/10/22 05:20:18;;;;;;;6.23;2.43;;;7.60;99.90;;;;;;5066084;28;20239;-82
2021/10/22 05:22:45;;;;;;;4.55;1.88;;;;;;;;;;5069422;28;20447;-82
2021/10/22 05:25:14;;;;;;;10.97;2.30;;;;;;;;;;5073655;28;20254;-80
2021/10/22 05:27:41;;;;;;;5.78;2.15;;;;;;;;;;5074784;28;20409;-80
2021/10/22 05:30:09;;;;;;;11.55;2.33;;;7.70;99.90;;;;;;5074302;28;20231;-78
2021/10/22 05:32:36;;;;;;;7.60;2.40;;;;;;;;;;5075527;28;20301;-82
2021/10/22 05:35:03;;;;;;;11.55;2.72;;;;;;;;;;5074946;28;20209;-80
2021/10/22 05:37:32;;;;;;;8.90;1.90;;;7.60;99.90;;;;;;5074397;28;20226;-80
2021/10/22 05:39:59;;;;;;;7.45;2.25;;;;;;;;;;5074607;28;20250;-81
2021/10/22 05:42:26;;;;;;;3.10;1.58;;;;;;;;;;5073022;28;20200;-82
2021/10/22 05:44:53;;;;;;;4.38;2.10;;;;;;;;;;5071484;28;20211;-80
2021/10/22 05:47:20;;;;;;;8.95;2.88;;;;;;;;;;5069662;28;20238;-81
2021/10/22 05:49:47;;;;;;;5.90;2.00;;;;;;;;;;5068267;28;20223;-82
2021/10/22 05:52:16;;;;;;;2.05;1.42;;;;;;;;;;5067394;28;20203;-82
2021/10/22 05:54:44;;;;;;;7.70;2.45;;;;;;;;;;5064711;28;20301;-83
2021/10/22 05:57:11;;;;;;;24.50;2.65;;;;;;;;;;5061089;28;20214;-82
2021/10/22 05:59:38;;;;;;;7.03;2.05;;;;;;;;;;5062316;28;20231;-83
2021/10/22 06:02:05;;;;;;;8.32;1.70;;;;;;;;;;5061800;28;20621;-83
2021/10/22 06:04:33;;;;;;;3.15;2.05;;;;;;;;;;5062286;28;20755;-82
2021/10/22 06:07:00;;;;;;;11.45;1.85;;;;;;;;;;5063144;28;20231;-82
2021/10/22 06:09:27;;;;;;;9.68;4.00;;;;;;;;;;5064540;28;20230;-82
2021/10/22 06:11:55;;;;;;;10.88;4.05;;;7.90;99.90;;;;;;5064865;28;20568;-82
2021/10/22 06:14:22;;;;;;;10.98;3.33;;;;;;;;;;5065407;28;20203;-83
2021/10/22 06:16:49;;;;;;;6.50;3.42;;;;;;;;;;5064904;28;20238;-83
2021/10/22 06:19:21;;;;;;;13.53;7.00;;;;;;;;;;5064846;28;20231;-83
2021/10/22 06:24:47;;;;;;;13.80;4.93;;;;;;;;;;5000733;28;20221;-83
2021/10/22 06:27:15;;;;;;;5.30;2.78;;;8.10;99.90;;;;;;5000874;28;20600;-84
2021/10/22 06:29:42;;;;;;;6.25;2.00;;;;;;;;;;5027383;28;20810;-82
2021/10/22 06:32:09;;;;;;;8.70;2.55;;;;;;;;;;5067314;28;20207;-83
2021/10/22 06:34:36;;;;;;;7.70;1.85;;;;;;;;;;5070094;28;20290;-82
2021/10/22 06:37:03;;;;;;;6.85;3.53;;;;;;;;;;5067281;28;20206;-83
2021/10/22 06:39:30;;;;;;;5.73;2.67;;;;;;;;;;5063442;28;20306;-81
2021/10/22 06:41:57;;;;;;;5.10;2.30;;;;;;;;;;5063169;28;20838;-82
2021/10/22 06:44:27;;;;;;;5.27;2.17;;;8.30;99.90;;;;;;5061784;28;20648;-83
2021/10/22 06:46:55;;;;;;;2.72;2.53;;;;;;;;;;5062581;28;20878;-82
2021/10/22 06:49:22;;;;;;;4.23;2.27;;;;;;;;;;5075812;28;20271;-80
2021/10/22 06:51:50;;;;;;;6.17;2.30;;;;;;;;;;5077489;28;20433;-81
2021/10/22 06:54:17;;;;;;;9.00;2.73;;;;;;;;;;5064530;28;20449;-81
2021/10/22 06:56:44;;;;;;;4.70;2.83;;;;;;;;;;5062542;28;20449;-81
2021/10/22 06:59:11;;;;;;;2.63;2.33;;;;;;;;;;5064582;28;20474;-81
2021/10/22 07:01:40;;;;;;;5.32;2.92;;;8.40;99.90;;;;;;5062455;28;20464;-83
2021/10/22 07:04:10;;;;;;;10.30;3.00;;;;;;;;;;5062316;28;20238;-82
2021/10/22 07:09:22;;;;;;;4.83;3.17;;;;;;;;;;5062183;28;20834;-82
2021/10/22 07:11:49;;;;;;;6.70;3.07;;;;;;;;;;5073684;28;20430;-80
2021/10/22 07:14:16;;;;;;;11.90;4.20;;;;;;;;;;5071452;28;20431;-79
2021/10/22 07:16:44;;;;;;;9.90;3.15;;;8.60;99.90;;;;;;5070765;28;20446;-80
2021/10/22 07:19:11;;;;;;;7.40;2.37;;;;;;;;;;5075552;28;20281;-81
2021/10/22 07:21:43;;;;;;;9.13;3.17;;;;;;;;;;5075096;28;20442;-80
2021/10/22 07:24:17;;;;;;;6.60;2.30;;;;;;;;;;5075436;28;20409;-82
2021/10/22 07:26:44;;;;;;;7.23;2.87;;;;;;;;;;5072411;28;20465;-80
2021/10/22 07:29:11;;;;;;;3.00;1.83;;;;;;;;;;5073097;28;21031;-80
2021/10/22 07:31:38;;;;;;;6.23;2.67;;;;;;;;;;5073095;28;20568;-79
2021/10/22 07:34:07;;;;;;;7.00;2.90;;;8.70;99.90;;;;;;5070322;28;20454;-82
2021/10/22 07:36:34;;;;;;;10.30;3.70;;;;;;;;;;5065866;28;20409;-82
2021/10/22 07:39:01;;;;;;;14.17;2.63;;;;;;;;;;5078212;28;20445;-81
2021/10/22 07:41:29;;;;;;;4.03;2.40;;;;;;;;;;5079054;28;20458;-80
2021/10/22 07:43:56;;;;;;;18.87;2.57;;;;;;;;;;5067581;28;20455;-81
2021/10/22 07:46:23;;;;;;;6.90;2.77;;;;;;;;;;5075952;28;20478;-81
2021/10/22 07:48:50;;;;;;;3.93;2.23;;;;;;;;;;5078953;28;20501;-80
2021/10/22 07:51:17;;;;;;;3.93;2.40;;;8.90;99.90;;;;;;5067299;28;20840;-80
2021/10/22 07:53:44;;;;;;;5.30;2.60;;;;;;;;;;5062133;28;20838;-82
2021/10/22 07:56:11;;;;;;;8.83;2.90;;;;;;;;;;5061692;28;20470;-81
2021/10/22 07:58:38;;;;;;;7.47;3.13;;;;;;;;;;5072870;28;20413;-81
2021/10/22 08:01:05;;;;;;;3.53;1.93;;;;;;;;;;5068604;28;20844;-82
2021/10/22 08:03:33;;;;;;;7.20;2.53;;;;;;;;;;5062651;28;20427;-83
2021/10/22 08:06:00;;;;;;;6.03;2.30;;;;;;;;;;5060904;28;20481;-82
2021/10/22 08:08:28;;;;;;;6.63;2.00;;;8.90;99.90;;;;;;5060407;28;20458;-82
2021/10/22 08:10:56;;;;;;;7.40;3.40;;;;;;;;;;5061618;28;20489;-82
2021/10/22 08:13:23;;;;;;;4.40;3.03;;;;;;;;;;5062859;28;20446;-83
2021/10/22 08:15:50;;;;;;;6.20;2.30;;;;;;;;;;5061553;28;20441;-83
2021/10/22 08:18:17;;;;;;;2.90;2.10;;;;;;;;;;5064933;28;20446;-81
2021/10/22 08:20:53;;;;;;;7.50;2.63;;;8.60;99.90;;;;;;5068662;28;20464;-80
2021/10/22 08:23:20;;;;;;;7.50;3.33;;;;;;;;;;5077567;28;20486;-79
2021/10/22 08:25:48;;;;;;;9.33;3.43;;;8.90;99.90;;;;;;5066470;28;20482;-83
2021/10/22 08:28:15;;;;;;;9.00;2.60;;;;;;;;;;5063271;28;20438;-83
2021/10/22 08:30:42;;;;;;;5.10;2.30;;;;;;;;;;5064205;28;20494;-83
2021/10/22 08:33:11;;;;;;;6.87;2.73;;;;;;;;;;5071833;28;20449;-83
2021/10/22 08:35:38;;;;;;;6.53;2.30;;;;;;;;;;5063373;28;20541;-82
2021/10/22 08:38:06;;;;;;;6.10;2.30;;;;;;;;;;5061156;28;20442;-83
2021/10/22 08:40:33;;;;;;;10.33;2.77;;;;;;;;;;5060949;28;20452;-83
2021/10/22 08:43:01;;;;;;;9.33;3.03;;;9.00;99.90;;;;;;5062083;28;20472;-82
2021/10/22 08:45:28;;;;;;;11.00;3.03;;;;;;;;;;5060914;28;20428;-80
2021/10/22 08:47:55;;;;;;;5.50;2.57;;;;;;;;;;5064529;28;20482;-82
2021/10/22 08:50:23;;;;;;;13.50;2.33;;;9.10;99.90;;;;;;5064782;28;20840;-81
2021/10/22 08:52:52;;;;;;;5.53;2.47;;;9.10;99.90;;;;;;5063847;28;20463;-81
2021/10/22 08:55:20;;;;;;;10.60;2.60;;;9.10;99.90;;;;;;5062427;28;20478;-81
2021/10/22 08:57:49;;;;;;;6.20;2.63;;;9.10;99.90;;;;;;5069301;28;20458;-82
2021/10/22 09:00:20;;;;;;;7.13;2.83;;;9.10;99.90;;;;;;5070075;28;20477;-83
2021/10/22 09:02:48;;;;;;;7.07;2.43;;;;;;;;;;5072413;28;20406;-80
2021/10/22 09:05:17;;;;;;;12.97;3.20;;;9.10;99.90;;;;;;5073608;28;20457;-81
2021/10/22 09:07:46;;;;;;;4.73;2.57;;;9.20;99.90;;;;;;5065043;28;20996;-82
2021/10/22 09:10:16;;;;;;;12.10;2.80;;;9.20;99.90;;;;;;5062896;28;20462;-82
2021/10/22 09:12:51;;;;;;;9.63;2.77;;;9.30;99.90;;;;;;5065246;28;20441;-81
2021/10/22 09:15:23;;;;;;;6.20;2.57;;;9.30;99.90;;;;;;5067195;28;20449;-83
2021/10/22 09:17:50;;;;;;;5.17;2.70;;;;;;;;;;5064461;28;20492;-83
2021/10/22 09:20:17;;;;;;;7.73;3.20;;;;;;;;;;5062960;28;20468;-82
2021/10/22 09:22:50;;;;;;;11.30;3.33;;;9.50;99.90;;;;;;5061700;28;20958;-83
2021/10/22 09:25:19;;;;;;;10.20;3.00;;;9.60;99.90;;;;;;5062266;28;20426;-83
2021/10/22 09:27:49;;;;;;;4.97;3.03;;;9.60;99.90;;;;;;5062403;28;20481;-83
2021/10/22 09:30:33;;;;;;;8.80;3.13;;;9.80;99.90;;;;;;5064127;28;20536;-82
2021/10/22 09:33:04;;;;;;;6.37;2.50;;;9.70;99.90;;;;;;5062285;28;20454;-83
2021/10/22 09:35:35;;;;;;;3.13;1.77;;;9.60;99.90;;;;;;5064107;28;20482;-81
2021/10/22 09:38:22;;;;;;;7.47;2.80;;;9.80;99.90;;;;;;5067107;28;20429;-82
2021/10/22 09:40:53;;;;;;;12.90;3.20;;;9.70;99.90;;;;;;5068563;28;20462;-80
2021/10/22 09:43:26;;;;;;;5.53;2.60;;;9.70;99.90;;;;;;5071246;28;20889;-82
2021/10/22 09:46:09;;;;;;;10.07;2.50;;;9.70;99.90;;;;;;5074177;28;20427;-83
2021/10/22 09:48:36;;;;;;;8.53;3.73;;;;;;;;;;5062881;28;20865;-82
2021/10/22 09:51:26;;;;;;;6.63;2.37;;;9.70;99.90;;;;;;5065012;28;20432;-80
2021/10/22 09:53:54;;;;;;;8.50;3.00;;;9.80;99.90;;;;;;5072484;28;20534;-82
2021/10/22 09:56:23;;;;;;;6.00;2.60;;;9.30;99.90;;;;;;5069973;28;20445;-82
2021/10/22 09:58:59;;;;;;;5.90;2.30;;;9.70;99.90;;;;;;5063219;28;20474;-81
2021/10/22 10:01:34;;;;;;;7.40;2.80;;;9.80;99.90;;;;;;5061695;28;20453;-84
2021/10/22 10:04:01;;;;;;;6.80;2.80;;;;;;;;;;5062735;28;20404;-83
2021/10/22 10:06:29;;;;;;;5.17;4.60;;;9.80;99.90;;;;;;5062525;28;20464;-83
2021/10/22 10:08:56;;;;;;;4.30;2.60;;;;;;;;;;5064159;28;20494;-81
2021/10/22 10:11:24;;;;;;;6.97;2.70;;;9.70;99.90;;;;;;5069852;28;20472;-80
2021/10/22 10:13:52;;;;;;;7.43;2.53;;;;;;;;;;5062318;28;20800;-81
2021/10/22 10:16:19;;;;;;;6.07;2.30;;;9.60;99.90;;;;;;5061847;28;20456;-83
2021/10/22 10:18:53;;;;;;;10.80;3.07;;;9.60;99.90;;;;;;5060973;28;20478;-82
2021/10/22 10:21:21;;;;;;;8.83;3.23;;;9.70;99.90;;;;;;5061404;28;20505;-82
2021/10/22 10:23:50;;;;;;;6.07;2.93;;;9.60;99.90;;;;;;5062366;28;20504;-82
2021/10/22 10:26:27;;;;;;;7.77;3.80;;;9.70;99.90;;;;;;5062185;28;21032;-83
2021/10/22 10:28:55;;;;;;;12.17;3.47;;;9.60;99.90;;;;;;5063459;28;20444;-82
2021/10/22 10:31:37;;;;;;;7.33;3.50;;;9.60;99.90;;;;;;5069688;28;20499;-83
2021/10/22 10:34:36;;;;;;;3.93;2.33;;;9.60;99.90;;;;;;5070853;28;20430;-81
2021/10/22 10:37:04;;;;;;;3.60;3.30;;;;;;;;;;5068810;28;20430;-82
2021/10/22 10:40:06;;;;;;;7.10;4.40;;;9.60;99.90;;;;;;5062942;28;20478;-83
2021/10/22 10:42:35;;;;;;;9.87;3.63;;;9.60;99.90;;;;;;5063703;28;20481;-83
2021/10/22 10:45:07;;;;;;;6.10;4.53;;;9.60;99.90;;;;;;5061060;28;20449;-83
2021/10/22 10:47:47;;;;;;;11.50;4.50;;;9.70;99.90;;;;;;5058269;28;20550;-83
2021/10/22 10:50:18;;;;;;;8.10;4.10;;;9.70;99.90;;;;;;5060216;28;20466;-83
2021/10/22 10:52:47;;;;;;;11.40;5.23;;;;;;;;;;5060284;28;20430;-83
2021/10/22 10:55:23;;;;;;;6.40;4.77;;;9.70;99.90;;;;;;5075358;28;20446;-82
2021/10/22 10:57:51;;;;;;;7.10;3.83;;;;;;;;;;5080338;28;20437;-83
2021/10/22 11:00:19;;;;;;;6.20;3.67;;;9.60;99.90;;;;;;5086730;22;20545;-86
2021/10/22 11:03:12;;;;;;;6.77;3.90;;;9.60;99.90;;;;;;5076974;28;20461;-87
2021/10/22 11:06:07;;;;;;;6.00;4.13;;;9.60;99.90;;;;;;5075765;28;20449;-88
2021/10/22 11:08:39;;;;;;;13.53;4.80;;;;;;;;;;5076603;28;20492;-88
2021/10/22 11:11:09;;;;;;;10.73;4.67;;;;;;;;;;5078204;28;20435;-88
2021/10/22 11:13:46;;;;;;;6.13;3.67;;;;;;;;;;5074280;28;20447;-86
2021/10/22 11:16:29;;;;;;;4.20;3.77;;;9.60;99.90;;;;;;5076934;28;20536;-87
2021/10/22 11:18:59;;;;;;;11.73;5.50;;;9.60;99.90;;;;;;5073162;28;20454;-87
2021/10/22 11:21:28;;;;;;;6.07;3.70;;;;;;;;;;5073673;28;20434;-87
2021/10/22 11:23:56;;;;;;;10.80;4.63;;;;;;;;;;5072230;28;20434;-87
2021/10/22 11:26:23;;;;;;;7.87;2.80;;;;;;;;;;5074511;28;20405;-88
2021/10/22 11:28:51;;;;;;;2.83;2.53;;;9.80;99.90;;;;;;5073547;28;20442;-88
2021/10/22 11:31:43;;;;;;;5.23;3.70;;;9.80;99.90;;;;;;5072419;28;20446;-88
2021/10/22 11:34:15;;;;;;;6.80;3.00;;;9.90;99.90;;;;;;5074618;28;20454;-88
2021/10/22 11:36:49;;;;;;;3.40;2.90;;;10.00;99.90;;;;;;5076296;28;20397;-87
2021/10/22 11:39:19;;;;;;;3.50;3.23;;;;;;;;;;5075068;28;20492;-86
2021/10/22 11:41:47;;;;;;;5.60;2.60;;;;;;;;;;5070663;28;20439;-87
2021/10/22 11:44:14;;;;;;;7.50;3.00;;;;;;;;;;5075111;28;20477;-86
2021/10/22 11:46:42;;;;;;;7.90;3.07;;;10.50;99.90;;;;;;5074955;28;20453;-86
2021/10/22 11:49:09;;;;;;;5.17;2.83;;;;;;;;;;5074089;28;20511;-86
2021/10/22 11:51:37;;;;;;;4.10;2.50;;;10.60;99.90;;;;;;5078006;28;20480;-88
2021/10/22 11:54:06;;;;;;;4.80;2.80;;;;;;;;;;5078951;28;20460;-89
2021/10/22 11:56:34;;;;;;;15.43;5.80;;;;;;;;;;5078957;28;20473;-89
2021/10/22 11:59:02;;;;;;;5.80;3.53;;;;;;;;;;5078779;28;20483;-88
2021/10/22 12:01:31;;;;;;;6.73;3.03;;;;;;;;;;5078982;28;20429;-87
2021/10/22 12:04:00;;;;;;;5.47;3.13;;;;;;;;;;5074960;28;20449;-87
2021/10/22 12:06:27;;;;;;;5.63;2.70;;;;;;;;;;5074965;28;20446;-87
2021/10/22 12:08:55;;;;;;;3.90;2.10;;;;;;;;;;5075081;28;20520;-86
2021/10/22 12:11:25;;;;;;;5.27;2.63;;;;;;;;;;5075145;28;20401;-88
2021/10/22 12:13:52;;;;;;;2.60;2.07;;;;;;;;;;5072748;28;20450;-87
2021/10/22 12:16:22;;;;;;;3.63;1.87;;;10.80;99.90;;;;;;5075099;28;20410;-86
2021/10/22 12:18:52;;;;;;;2.70;2.30;;;10.80;99.90;;;;;;5073607;28;20401;-87
2021/10/22 12:21:19;;;;;;;7.47;2.40;;;;;;;;;;5073890;28;20449;-87
2021/10/22 12:23:46;;;;;;;9.03;2.27;;;;;;;;;;5074148;28;20473;-87
2021/10/22 12:26:21;;;;;;;7.30;4.23;;;;;;;;;;5075428;28;20434;-87
2021/10/22 12:29:00;;;;;;;6.87;2.70;;;;;;;;;;5075478;28;20463;-87
2021/10/22 12:31:31;;;;;;;4.27;2.13;;;;;;;;;;5078396;28;20509;-89
2021/10/22 12:34:06;;;;;;;8.97;4.33;;;10.70;99.90;;;;;;5077662;28;20492;-88
2021/10/22 12:36:33;;;;;;;8.80;2.90;;;;;;;;;;5077353;28;20471;-87
2021/10/22 12:39:20;;;;;;;4.57;2.40;;;10.70;99.90;;;;;;5077063;28;20452;-90
2021/10/22 12:41:48;;;;;;;5.00;2.83;;;;;;;;;;5077567;28;20446;-87
2021/10/22 12:44:18;;;;;;;4.10;2.33;;;;;;;;;;5078380;28;20434;-88
2021/10/22 12:46:55;;;;;;;5.70;2.60;;;;;;;;;;5078287;28;20441;-89
2021/10/22 12:49:25;;;;;;;6.37;2.17;;;;;;;;;;5077026;28;20480;-87
2021/10/22 12:51:57;;;;;;;7.70;2.50;;;10.60;99.90;;;;;;5076772;28;20445;-87
2021/10/22 12:54:24;;;;;;;3.00;1.80;;;;;;;;;;5067833;28;20457;-87
2021/10/22 12:56:57;;;;;;;8.70;2.17;;;10.60;99.90;;;;;;5066784;28;20446;-87
2021/10/22 12:59:29;;;;;;;6.83;3.40;;;;;;;;;;5066839;28;20475;-87
2021/10/22 13:01:56;;;;;;;6.20;3.27;;;;;;;;;;5066613;28;20408;-88
2021/10/22 13:04:25;;;;;;;6.80;3.93;;;10.60;99.90;;;;;;5066873;28;20446;-88
2021/10/22 13:06:58;;;;;;;5.50;3.20;;;;;;;;;;5066041;28;20436;-87
2021/10/22 13:12:34;;;;;;;14.03;9.00;;;;;;;;;;5070190;28;20437;-88
2021/10/22 13:20:38;;;;;;;15.70;3.83;;;;;;;;;;5066006;28;20512;-86
2021/10/22 13:23:10;;;;;;;5.83;2.30;;;9.90;99.90;;;;;;5065869;28;20447;-86
2021/10/22 13:25:44;;;;;;;5.17;3.03;;;;;;;;;;5065584;28;20438;-87
2021/10/22 13:28:11;;;;;;;4.50;2.70;;;;;;;;;;5065114;28;20445;-88
2021/10/22 13:30:52;;;;;;;5.10;3.33;;;;;;;;;;5067330;28;20477;-87
2021/10/22 13:33:27;;;;;;;4.17;3.33;;;;;;;;;;5070011;28;20460;-87
2021/10/22 13:35:54;;;;;;;4.43;2.63;;;;;;;;;;5068608;28;20409;-87
2021/10/22 13:38:23;;;;;;;2.60;2.40;;;;;;;;;;5069170;28;20478;-87
2021/10/22 13:40:51;;;;;;;5.17;3.17;;;;;;;;;;5068129;28;20469;-87
2021/10/22 13:43:18;;;;;;;3.43;2.90;;;;;;;;;;5067655;28;20478;-88
2021/10/22 13:45:46;;;;;;;14.43;5.77;;;;;;;;;;5074006;28;20446;-88
2021/10/22 13:48:43;;;;;;;6.87;3.40;;;9.10;99.90;;;;;;5066210;28;20508;-88
2021/10/22 13:51:12;;;;;;;4.37;2.40;;;;;;;;;;5071587;28;20469;-87
2021/10/22 13:54:01;;;;;;;7.10;3.37;;;;;;;;;;5141814;22;20510;-87
2021/10/22 13:56:28;;;;;;;7.00;3.20;;;;;;;;;;5074902;28;20464;-89
2021/10/22 13:58:55;;;;;;;6.23;3.43;;;;;;;;;;5076060;28;20437;-87
2021/10/22 14:01:23;;;;;;;5.17;3.10;;;8.90;99.90;;;;;;5067408;28;20468;-87
2021/10/22 14:03:50;;;;;;;4.33;3.20;;;;;;;;;;5065900;28;20446;-88
2021/10/22 14:06:17;;;;;;;8.57;3.33;;;;;;;;;;5084726;22;20551;-82
2021/10/22 14:08:44;;;;;;;8.50;3.87;;;;;;;;;;5073446;28;20480;-82
2021/10/22 14:11:15;;;;;;;6.80;3.60;;;;;;;;;;5074596;28;20433;-82
2021/10/22 14:13:47;;;;;;;6.53;4.10;;;;;;;;;;5077495;28;20422;-82
2021/10/22 14:16:34;;;;;;;3.93;3.63;;;;;;;;;;5074158;28;20458;-80
2021/10/22 14:19:29;;;;;;;4.63;2.97;;;8.90;99.90;;;;;;5072952;28;20434;-83
2021/10/22 14:30:07;;;;;;;3.77;3.47;;;9.00;99.90;;;;;;5064082;28;20831;-82
2021/10/22 14:32:35;;;;;;;4.80;3.20;;;;;;;;;;5062849;28;20445;-82
2021/10/22 14:35:03;;;;;;;4.80;3.13;;;9.00;99.90;;;;;;5062983;28;20818;-82
2021/10/22 14:37:31;;;;;;;4.28;3.30;;;;;;;;;;5064784;28;20438;-83
2021/10/22 14:39:58;;;;;;;5.83;3.27;;;;;;;;;;5062550;28;20214;-82
2021/10/22 14:42:28;;;;;;;3.87;3.20;;;;;;;;;;5061975;28;20476;-83
2021/10/22 14:44:56;;;;;;;5.23;2.80;;;;;;;;;;5066372;28;20476;-81
2021/10/22 14:47:25;;;;;;;5.93;4.30;;;;;;;;;;5064161;28;20419;-84